sensor_id;sensor_type;location;lat;lon;timestamp;P1;durP1;ratioP1;P2;durP2;ratioP2
23015;SDS011;11674;52.428;13.584;2023-01-01T00:01:20;15.02;;;9.10;;
23015;SDS011;11674;52.428;13.584;2023-01-01T00:06:27;17.60;;;7.00;;
23015;SDS011;11674;52.428;13.584;2023-01-01T00:11:34;12.98;;;6.90;;
23015;SDS011;11674;52.428;13.584;2023-01-01T00:16:40;13.77;;;8.13;;
23015;SDS011;11674;52.428;13.584;2023-01-01T00:21:47;16.08;;;9.32;;
23015;SDS011;11674;52.428;13.584;2023-01-01T00:26:55;14.90;;;7.10;;
23015;SDS011;11674;52.428;13.584;2023-01-01T00:32:02;8.63;;;5.20;;
23015;SDS011;11674;52.428;13.584;2023-01-01T00:37:09;8.40;;;4.20;;
23015;SDS011;11674;52.428;13.584;2023-01-01T00:42:16;7.30;;;4.10;;
23015;SDS011;11674;52.428;13.584;2023-01-01T00:47:23;10.15;;;3.90;;
23015;SDS011;11674;52.428;13.584;2023-01-01T00:52:30;8.88;;;3.38;;
23015;SDS011;11674;52.428;13.584;2023-01-01T00:57:37;19.33;;;9.52;;
23015;SDS011;11674;52.428;13.584;2023-01-01T01:02:44;16.48;;;9.40;;
23015;SDS011;11674;52.428;13.584;2023-01-01T01:07:51;11.32;;;4.95;;
23015;SDS011;11674;52.428;13.584;2023-01-01T01:12:58;12.27;;;3.88;;
23015;SDS011;11674;52.428;13.584;2023-01-01T01:18:05;10.48;;;4.20;;
23015;SDS011;11674;52.428;13.584;2023-01-01T01:23:12;8.35;;;4.03;;
23015;SDS011;11674;52.428;13.584;2023-01-01T01:28:19;7.75;;;4.38;;
23015;SDS011;11674;52.428;13.584;2023-01-01T01:33:26;13.98;;;5.30;;
23015;SDS011;11674;52.428;13.584;2023-01-01T01:38:33;15.50;;;5.82;;
23015;SDS011;11674;52.428;13.584;2023-01-01T01:48:47;12.52;;;3.78;;
23015;SDS011;11674;52.428;13.584;2023-01-01T01:53:59;11.10;;;4.20;;
23015;SDS011;11674;52.428;13.584;2023-01-01T01:59:11;6.47;;;3.50;;
23015;SDS011;11674;52.428;13.584;2023-01-01T02:04:19;10.98;;;5.38;;
23015;SDS011;11674;52.428;13.584;2023-01-01T02:09:26;11.63;;;4.40;;
23015;SDS011;11674;52.428;13.584;2023-01-01T02:14:33;11.45;;;4.85;;
23015;SDS011;11674;52.428;13.584;2023-01-01T02:25:23;11.18;;;3.25;;
23015;SDS011;11674;52.428;13.584;2023-01-01T02:30:41;9.27;;;3.90;;
23015;SDS011;11674;52.428;13.584;2023-01-01T02:35:55;8.17;;;3.90;;
23015;SDS011;11674;52.428;13.584;2023-01-01T02:41:05;11.95;;;4.05;;
23015;SDS011;11674;52.428;13.584;2023-01-01T02:46:17;7.90;;;4.00;;
23015;SDS011;11674;52.428;13.584;2023-01-01T02:57:09;5.57;;;3.00;;
23015;SDS011;11674;52.428;13.584;2023-01-01T03:23:50;8.32;;;3.55;;
23015;SDS011;11674;52.428;13.584;2023-01-01T03:28:59;8.65;;;3.70;;
23015;SDS011;11674;52.428;13.584;2023-01-01T03:34:14;21.48;;;7.53;;
23015;SDS011;11674;52.428;13.584;2023-01-01T03:39:33;7.47;;;3.80;;
23015;SDS011;11674;52.428;13.584;2023-01-01T03:44:48;11.50;;;4.45;;
23015;SDS011;11674;52.428;13.584;2023-01-01T03:49:59;13.98;;;3.45;;
23015;SDS011;11674;52.428;13.584;2023-01-01T03:55:18;10.55;;;4.68;;
23015;SDS011;11674;52.428;13.584;2023-01-01T04:00:55;7.37;;;3.70;;
23015;SDS011;11674;52.428;13.584;2023-01-01T04:06:09;10.75;;;5.22;;
23015;SDS011;11674;52.428;13.584;2023-01-01T04:11:19;5.22;;;3.17;;
23015;SDS011;11674;52.428;13.584;2023-01-01T04:16:30;7.38;;;3.38;;
23015;SDS011;11674;52.428;13.584;2023-01-01T04:21:37;11.32;;;3.45;;
23015;SDS011;11674;52.428;13.584;2023-01-01T04:26:44;14.50;;;4.15;;
23015;SDS011;11674;52.428;13.584;2023-01-01T04:31:51;7.50;;;3.53;;
23015;SDS011;11674;52.428;13.584;2023-01-01T04:36:58;13.98;;;7.05;;
23015;SDS011;11674;52.428;13.584;2023-01-01T04:42:12;10.95;;;3.75;;
23015;SDS011;11674;52.428;13.584;2023-01-01T04:47:19;11.68;;;3.60;;
23015;SDS011;11674;52.428;13.584;2023-01-01T04:52:27;15.05;;;6.32;;
23015;SDS011;11674;52.428;13.584;2023-01-01T04:57:34;5.72;;;3.00;;
23015;SDS011;11674;52.428;13.584;2023-01-01T05:02:41;9.70;;;3.22;;
23015;SDS011;11674;52.428;13.584;2023-01-01T05:07:48;6.55;;;2.95;;
23015;SDS011;11674;52.428;13.584;2023-01-01T05:12:55;7.43;;;3.33;;
23015;SDS011;11674;52.428;13.584;2023-01-01T05:18:02;7.47;;;2.75;;
23015;SDS011;11674;52.428;13.584;2023-01-01T05:23:09;5.32;;;2.45;;
23015;SDS011;11674;52.428;13.584;2023-01-01T05:28:16;8.80;;;4.45;;
23015;SDS011;11674;52.428;13.584;2023-01-01T05:33:23;11.25;;;4.25;;
23015;SDS011;11674;52.428;13.584;2023-01-01T05:38:30;7.82;;;3.55;;
23015;SDS011;11674;52.428;13.584;2023-01-01T05:43:37;5.63;;;3.35;;
23015;SDS011;11674;52.428;13.584;2023-01-01T05:48:47;14.50;;;5.10;;
23015;SDS011;11674;52.428;13.584;2023-01-01T05:53:54;16.83;;;5.55;;
23015;SDS011;11674;52.428;13.584;2023-01-01T05:59:02;15.15;;;8.18;;
23015;SDS011;11674;52.428;13.584;2023-01-01T06:04:09;26.25;;;6.70;;
23015;SDS011;11674;52.428;13.584;2023-01-01T06:09:16;13.85;;;3.50;;
23015;SDS011;11674;52.428;13.584;2023-01-01T06:14:23;7.22;;;2.80;;
23015;SDS011;11674;52.428;13.584;2023-01-01T06:19:30;7.25;;;2.58;;
23015;SDS011;11674;52.428;13.584;2023-01-01T06:24:37;4.72;;;2.35;;
23015;SDS011;11674;52.428;13.584;2023-01-01T06:29:44;7.50;;;2.50;;
23015;SDS011;11674;52.428;13.584;2023-01-01T06:34:51;5.95;;;2.83;;
23015;SDS011;11674;52.428;13.584;2023-01-01T06:39:58;7.93;;;2.60;;
23015;SDS011;11674;52.428;13.584;2023-01-01T06:45:05;4.60;;;2.50;;
23015;SDS011;11674;52.428;13.584;2023-01-01T06:50:13;3.42;;;2.25;;
23015;SDS011;11674;52.428;13.584;2023-01-01T06:55:20;4.65;;;2.47;;
23015;SDS011;11674;52.428;13.584;2023-01-01T07:00:27;7.93;;;2.83;;
23015;SDS011;11674;52.428;13.584;2023-01-01T07:05:34;8.35;;;2.85;;
23015;SDS011;11674;52.428;13.584;2023-01-01T07:10:41;5.15;;;2.42;;
23015;SDS011;11674;52.428;13.584;2023-01-01T07:15:48;7.57;;;3.08;;
23015;SDS011;11674;52.428;13.584;2023-01-01T07:20:58;5.40;;;2.70;;
23015;SDS011;11674;52.428;13.584;2023-01-01T07:26:07;5.47;;;2.75;;
23015;SDS011;11674;52.428;13.584;2023-01-01T07:31:14;7.68;;;2.83;;
23015;SDS011;11674;52.428;13.584;2023-01-01T07:36:21;4.47;;;2.58;;
23015;SDS011;11674;52.428;13.584;2023-01-01T07:41:28;10.05;;;3.15;;
23015;SDS011;11674;52.428;13.584;2023-01-01T07:46:36;6.53;;;2.70;;
23015;SDS011;11674;52.428;13.584;2023-01-01T07:51:43;5.80;;;2.88;;
23015;SDS011;11674;52.428;13.584;2023-01-01T07:56:50;8.73;;;3.10;;
23015;SDS011;11674;52.428;13.584;2023-01-01T08:01:57;6.70;;;2.72;;
23015;SDS011;11674;52.428;13.584;2023-01-01T08:07:04;5.03;;;2.53;;
23015;SDS011;11674;52.428;13.584;2023-01-01T08:12:11;5.55;;;3.03;;
23015;SDS011;11674;52.428;13.584;2023-01-01T08:17:18;5.22;;;2.45;;
23015;SDS011;11674;52.428;13.584;2023-01-01T08:22:25;5.80;;;2.65;;
23015;SDS011;11674;52.428;13.584;2023-01-01T08:27:32;5.63;;;2.80;;
23015;SDS011;11674;52.428;13.584;2023-01-01T08:32:39;8.18;;;2.78;;
23015;SDS011;11674;52.428;13.584;2023-01-01T08:37:46;7.55;;;3.05;;
23015;SDS011;11674;52.428;13.584;2023-01-01T08:42:53;4.85;;;2.45;;
23015;SDS011;11674;52.428;13.584;2023-01-01T08:48:00;7.25;;;2.97;;
23015;SDS011;11674;52.428;13.584;2023-01-01T08:53:07;5.80;;;2.83;;
23015;SDS011;11674;52.428;13.584;2023-01-01T08:58:14;9.07;;;2.80;;
23015;SDS011;11674;52.428;13.584;2023-01-01T09:03:21;8.82;;;2.78;;
23015;SDS011;11674;52.428;13.584;2023-01-01T09:08:28;5.78;;;2.70;;
23015;SDS011;11674;52.428;13.584;2023-01-01T09:13:35;9.18;;;2.45;;
23015;SDS011;11674;52.428;13.584;2023-01-01T09:18:42;4.85;;;2.45;;
23015;SDS011;11674;52.428;13.584;2023-01-01T09:23:49;4.40;;;2.38;;
23015;SDS011;11674;52.428;13.584;2023-01-01T09:28:56;5.53;;;2.83;;
23015;SDS011;11674;52.428;13.584;2023-01-01T09:34:03;7.45;;;2.65;;
23015;SDS011;11674;52.428;13.584;2023-01-01T09:39:10;9.10;;;2.42;;
23015;SDS011;11674;52.428;13.584;2023-01-01T09:49:30;8.10;;;2.55;;
23015;SDS011;11674;52.428;13.584;2023-01-01T09:54:54;7.60;;;3.10;;
23015;SDS011;11674;52.428;13.584;2023-01-01T10:00:09;5.75;;;2.25;;
23015;SDS011;11674;52.428;13.584;2023-01-01T10:05:41;4.25;;;2.30;;
23015;SDS011;11674;52.428;13.584;2023-01-01T10:16:32;5.50;;;2.22;;
23015;SDS011;11674;52.428;13.584;2023-01-01T10:21:45;4.03;;;1.90;;
23015;SDS011;11674;52.428;13.584;2023-01-01T10:26:54;8.57;;;2.50;;
23015;SDS011;11674;52.428;13.584;2023-01-01T10:32:05;9.60;;;2.20;;
23015;SDS011;11674;52.428;13.584;2023-01-01T10:37:23;7.20;;;2.38;;
23015;SDS011;11674;52.428;13.584;2023-01-01T10:42:31;8.65;;;2.28;;
23015;SDS011;11674;52.428;13.584;2023-01-01T10:47:38;7.18;;;2.08;;
23015;SDS011;11674;52.428;13.584;2023-01-01T10:52:45;6.25;;;2.25;;
23015;SDS011;11674;52.428;13.584;2023-01-01T10:58:07;5.13;;;2.00;;
23015;SDS011;11674;52.428;13.584;2023-01-01T11:09:23;3.70;;;2.15;;
23015;SDS011;11674;52.428;13.584;2023-01-01T11:19:43;5.22;;;2.03;;
23015;SDS011;11674;52.428;13.584;2023-01-01T11:25:02;3.90;;;1.77;;
23015;SDS011;11674;52.428;13.584;2023-01-01T11:30:26;3.20;;;1.90;;
23015;SDS011;11674;52.428;13.584;2023-01-01T11:35:37;3.72;;;1.77;;
23015;SDS011;11674;52.428;13.584;2023-01-01T11:40:55;4.43;;;1.98;;
23015;SDS011;11674;52.428;13.584;2023-01-01T11:46:09;5.45;;;2.00;;
23015;SDS011;11674;52.428;13.584;2023-01-01T11:51:28;10.25;;;1.98;;
23015;SDS011;11674;52.428;13.584;2023-01-01T11:56:37;4.22;;;1.80;;
23015;SDS011;11674;52.428;13.584;2023-01-01T12:01:50;3.72;;;1.80;;
23015;SDS011;11674;52.428;13.584;2023-01-01T12:07:14;4.45;;;1.75;;
23015;SDS011;11674;52.428;13.584;2023-01-01T12:12:27;4.53;;;2.03;;
23015;SDS011;11674;52.428;13.584;2023-01-01T12:17:51;5.07;;;1.65;;
23015;SDS011;11674;52.428;13.584;2023-01-01T12:23:07;4.25;;;1.60;;
23015;SDS011;11674;52.428;13.584;2023-01-01T12:39:35;5.05;;;1.90;;
23015;SDS011;11674;52.428;13.584;2023-01-01T13:01:10;3.90;;;2.03;;
23015;SDS011;11674;52.428;13.584;2023-01-01T13:06:39;3.90;;;2.00;;
23015;SDS011;11674;52.428;13.584;2023-01-01T13:11:51;7.55;;;2.30;;
23015;SDS011;11674;52.428;13.584;2023-01-01T13:17:03;7.20;;;2.42;;
23015;SDS011;11674;52.428;13.584;2023-01-01T13:33:16;16.25;;;7.07;;
23015;SDS011;11674;52.428;13.584;2023-01-01T13:44:16;8.27;;;2.38;;
23015;SDS011;11674;52.428;13.584;2023-01-01T13:49:41;5.03;;;2.50;;
23015;SDS011;11674;52.428;13.584;2023-01-01T14:11:23;7.82;;;2.90;;
23015;SDS011;11674;52.428;13.584;2023-01-01T14:16:30;5.28;;;3.00;;
23015;SDS011;11674;52.428;13.584;2023-01-01T14:21:37;4.30;;;2.42;;
23015;SDS011;11674;52.428;13.584;2023-01-01T14:26:44;9.77;;;2.47;;
23015;SDS011;11674;52.428;13.584;2023-01-01T14:31:51;5.63;;;2.50;;
23015;SDS011;11674;52.428;13.584;2023-01-01T14:37:00;6.78;;;2.67;;
23015;SDS011;11674;52.428;13.584;2023-01-01T14:42:24;11.10;;;5.22;;
23015;SDS011;11674;52.428;13.584;2023-01-01T14:47:41;7.50;;;3.35;;
23015;SDS011;11674;52.428;13.584;2023-01-01T14:53:15;5.95;;;2.42;;
23015;SDS011;11674;52.428;13.584;2023-01-01T14:58:30;6.60;;;2.47;;
23015;SDS011;11674;52.428;13.584;2023-01-01T15:03:38;7.38;;;2.55;;
23015;SDS011;11674;52.428;13.584;2023-01-01T15:08:48;8.70;;;2.70;;
23015;SDS011;11674;52.428;13.584;2023-01-01T15:14:00;8.02;;;2.90;;
23015;SDS011;11674;52.428;13.584;2023-01-01T15:19:15;7.78;;;2.88;;
23015;SDS011;11674;52.428;13.584;2023-01-01T15:24:23;6.22;;;3.00;;
23015;SDS011;11674;52.428;13.584;2023-01-01T15:29:31;9.60;;;2.55;;
23015;SDS011;11674;52.428;13.584;2023-01-01T15:34:47;7.68;;;2.75;;
23015;SDS011;11674;52.428;13.584;2023-01-01T15:40:03;7.38;;;2.97;;
23015;SDS011;11674;52.428;13.584;2023-01-01T15:55:58;4.78;;;2.78;;
23015;SDS011;11674;52.428;13.584;2023-01-01T16:01:08;7.13;;;2.47;;
23015;SDS011;11674;52.428;13.584;2023-01-01T16:06:18;7.57;;;2.65;;
23015;SDS011;11674;52.428;13.584;2023-01-01T16:11:26;4.07;;;2.13;;
23015;SDS011;11674;52.428;13.584;2023-01-01T16:16:35;8.60;;;2.83;;
23015;SDS011;11674;52.428;13.584;2023-01-01T16:21:43;5.35;;;2.95;;
23015;SDS011;11674;52.428;13.584;2023-01-01T16:26:50;4.40;;;2.55;;
23015;SDS011;11674;52.428;13.584;2023-01-01T16:31:57;7.20;;;3.45;;
23015;SDS011;11674;52.428;13.584;2023-01-01T16:37:04;6.10;;;2.90;;
23015;SDS011;11674;52.428;13.584;2023-01-01T16:42:11;7.95;;;4.45;;
23015;SDS011;11674;52.428;13.584;2023-01-01T16:47:19;8.38;;;3.58;;
23015;SDS011;11674;52.428;13.584;2023-01-01T16:52:26;10.00;;;4.78;;
23015;SDS011;11674;52.428;13.584;2023-01-01T16:57:33;7.40;;;4.10;;
23015;SDS011;11674;52.428;13.584;2023-01-01T17:02:40;9.63;;;3.00;;
23015;SDS011;11674;52.428;13.584;2023-01-01T17:07:47;7.65;;;2.85;;
23015;SDS011;11674;52.428;13.584;2023-01-01T17:12:54;7.80;;;2.95;;
23015;SDS011;11674;52.428;13.584;2023-01-01T17:18:01;7.22;;;2.60;;
23015;SDS011;11674;52.428;13.584;2023-01-01T17:23:08;7.30;;;4.10;;
23015;SDS011;11674;52.428;13.584;2023-01-01T17:28:15;9.48;;;4.43;;
23015;SDS011;11674;52.428;13.584;2023-01-01T17:33:22;9.82;;;4.03;;
23015;SDS011;11674;52.428;13.584;2023-01-01T17:38:29;9.40;;;3.95;;
23015;SDS011;11674;52.428;13.584;2023-01-01T17:43:38;12.63;;;3.80;;
23015;SDS011;11674;52.428;13.584;2023-01-01T17:48:46;10.30;;;3.40;;
23015;SDS011;11674;52.428;13.584;2023-01-01T17:53:54;15.63;;;8.25;;
23015;SDS011;11674;52.428;13.584;2023-01-01T17:59:02;7.35;;;4.15;;
23015;SDS011;11674;52.428;13.584;2023-01-01T18:04:09;6.68;;;4.00;;
23015;SDS011;11674;52.428;13.584;2023-01-01T18:09:16;8.57;;;4.10;;
23015;SDS011;11674;52.428;13.584;2023-01-01T18:14:23;7.68;;;4.05;;
23015;SDS011;11674;52.428;13.584;2023-01-01T18:19:30;6.63;;;3.60;;
23015;SDS011;11674;52.428;13.584;2023-01-01T18:24:37;5.90;;;2.72;;
23015;SDS011;11674;52.428;13.584;2023-01-01T18:29:44;7.13;;;2.92;;
23015;SDS011;11674;52.428;13.584;2023-01-01T18:34:51;7.07;;;2.78;;
23015;SDS011;11674;52.428;13.584;2023-01-01T18:39:58;8.90;;;2.90;;
23015;SDS011;11674;52.428;13.584;2023-01-01T18:45:12;6.93;;;3.20;;
23015;SDS011;11674;52.428;13.584;2023-01-01T18:50:22;5.43;;;2.97;;
23015;SDS011;11674;52.428;13.584;2023-01-01T18:55:30;7.53;;;3.05;;
23015;SDS011;11674;52.428;13.584;2023-01-01T19:00:37;4.97;;;2.85;;
23015;SDS011;11674;52.428;13.584;2023-01-01T19:05:44;7.43;;;2.85;;
23015;SDS011;11674;52.428;13.584;2023-01-01T19:10:52;5.13;;;2.78;;
23015;SDS011;11674;52.428;13.584;2023-01-01T19:21:20;9.18;;;3.08;;
23015;SDS011;11674;52.428;13.584;2023-01-01T19:26:33;8.37;;;2.93;;
23015;SDS011;11674;52.428;13.584;2023-01-01T19:31:43;7.72;;;3.47;;
23015;SDS011;11674;52.428;13.584;2023-01-01T19:37:00;6.93;;;2.83;;
23015;SDS011;11674;52.428;13.584;2023-01-01T19:42:07;10.02;;;3.30;;
23015;SDS011;11674;52.428;13.584;2023-01-01T19:47:14;6.43;;;2.55;;
23015;SDS011;11674;52.428;13.584;2023-01-01T19:52:21;5.50;;;3.08;;
23015;SDS011;11674;52.428;13.584;2023-01-01T19:57:28;7.85;;;2.33;;
23015;SDS011;11674;52.428;13.584;2023-01-01T20:02:35;8.20;;;2.90;;
23015;SDS011;11674;52.428;13.584;2023-01-01T20:07:42;13.75;;;3.38;;
23015;SDS011;11674;52.428;13.584;2023-01-01T20:12:49;6.35;;;2.67;;
23015;SDS011;11674;52.428;13.584;2023-01-01T20:17:57;4.90;;;2.53;;
23015;SDS011;11674;52.428;13.584;2023-01-01T20:23:03;6.80;;;2.47;;
23015;SDS011;11674;52.428;13.584;2023-01-01T20:28:10;6.97;;;2.65;;
23015;SDS011;11674;52.428;13.584;2023-01-01T20:33:17;6.82;;;2.47;;
23015;SDS011;11674;52.428;13.584;2023-01-01T20:38:24;6.07;;;2.40;;
23015;SDS011;11674;52.428;13.584;2023-01-01T20:43:31;6.22;;;2.20;;
23015;SDS011;11674;52.428;13.584;2023-01-01T20:48:38;11.57;;;2.30;;
23015;SDS011;11674;52.428;13.584;2023-01-01T20:53:46;5.93;;;2.70;;
23015;SDS011;11674;52.428;13.584;2023-01-01T20:58:52;19.15;;;8.93;;
23015;SDS011;11674;52.428;13.584;2023-01-01T21:03:59;9.02;;;4.38;;
23015;SDS011;11674;52.428;13.584;2023-01-01T21:09:06;15.45;;;5.50;;
23015;SDS011;11674;52.428;13.584;2023-01-01T21:14:13;6.22;;;2.40;;
23015;SDS011;11674;52.428;13.584;2023-01-01T21:19:20;6.60;;;2.42;;
23015;SDS011;11674;52.428;13.584;2023-01-01T21:24:28;5.07;;;2.28;;
23015;SDS011;11674;52.428;13.584;2023-01-01T21:29:46;10.50;;;4.00;;
23015;SDS011;11674;52.428;13.584;2023-01-01T21:34:54;8.30;;;3.17;;
23015;SDS011;11674;52.428;13.584;2023-01-01T21:45:31;7.57;;;2.78;;
23015;SDS011;11674;52.428;13.584;2023-01-01T21:50:40;7.18;;;3.20;;
23015;SDS011;11674;52.428;13.584;2023-01-01T21:55:50;7.63;;;3.40;;
23015;SDS011;11674;52.428;13.584;2023-01-01T22:00:58;6.53;;;2.90;;
23015;SDS011;11674;52.428;13.584;2023-01-01T22:06:11;4.28;;;2.47;;
23015;SDS011;11674;52.428;13.584;2023-01-01T22:11:23;7.78;;;3.05;;
23015;SDS011;11674;52.428;13.584;2023-01-01T22:16:31;4.80;;;2.93;;
23015;SDS011;11674;52.428;13.584;2023-01-01T22:21:38;6.20;;;2.80;;
23015;SDS011;11674;52.428;13.584;2023-01-01T22:26:46;6.43;;;3.28;;
23015;SDS011;11674;52.428;13.584;2023-01-01T22:32:00;8.30;;;3.42;;
23015;SDS011;11674;52.428;13.584;2023-01-01T22:37:22;11.68;;;3.08;;
23015;SDS011;11674;52.428;13.584;2023-01-01T22:42:40;12.77;;;3.95;;
23015;SDS011;11674;52.428;13.584;2023-01-01T22:47:47;8.45;;;3.38;;
23015;SDS011;11674;52.428;13.584;2023-01-01T22:52:55;11.38;;;3.58;;
23015;SDS011;11674;52.428;13.584;2023-01-01T22:58:03;6.65;;;2.83;;
23015;SDS011;11674;52.428;13.584;2023-01-01T23:03:10;9.82;;;3.25;;
23015;SDS011;11674;52.428;13.584;2023-01-01T23:08:17;12.57;;;3.05;;
23015;SDS011;11674;52.428;13.584;2023-01-01T23:13:24;8.82;;;3.47;;
23015;SDS011;11674;52.428;13.584;2023-01-01T23:18:32;10.18;;;3.33;;
23015;SDS011;11674;52.428;13.584;2023-01-01T23:23:53;9.57;;;4.35;;
23015;SDS011;11674;52.428;13.584;2023-01-01T23:29:05;7.05;;;2.92;;
23015;SDS011;11674;52.428;13.584;2023-01-01T23:34:18;6.57;;;3.80;;
23015;SDS011;11674;52.428;13.584;2023-01-01T23:39:28;7.45;;;3.15;;
23015;SDS011;11674;52.428;13.584;2023-01-01T23:44:35;13.82;;;3.58;;
23015;SDS011;11674;52.428;13.584;2023-01-01T23:49:42;11.60;;;3.42;;
23015;SDS011;11674;52.428;13.584;2023-01-01T23:54:55;7.10;;;3.50;;
